Terminal Aerodrome Forecast
Issued by NWS

Home | Current Version | Previous Version | Text Only | Print | Product List | Glossary On
Versions: 1 2 3 4 5 6 7 8 9 10 11 12 13 14 15
000
FTUS43 KGRB 201700
TAFMTW
TAF
KMTW 201725Z 2018/2118 33010G16KT P6SM OVC050
     FM210300 35008KT P6SM SCT040
     FM210500 36009KT P6SM BKN020
     FM211400 36013KT P6SM BKN025=

USA.gov is the U.S. government's official web portal to all federal, state and local government web resources and services.